createdAt,value
2018-12-29T00:02:44.909Z,4.28
2018-12-29T00:05:55.216Z,4.35
2018-12-29T00:08:57.931Z,4.34
2018-12-29T00:12:08.216Z,4.38
2018-12-29T00:15:11.484Z,4.40
2018-12-29T00:18:21.782Z,4.42
2018-12-29T00:21:24.658Z,4.45
2018-12-29T00:24:27.621Z,4.46
2018-12-29T00:27:30.798Z,4.45
2018-12-29T00:30:41.127Z,4.51
2018-12-29T00:33:44.355Z,4.55
2018-12-29T00:36:47.522Z,4.54
2018-12-29T00:39:57.836Z,4.53
2018-12-29T00:43:01.220Z,4.49
2018-12-29T00:46:11.497Z,4.48
2018-12-29T00:49:14.362Z,4.44
2018-12-29T00:52:24.677Z,4.43
2018-12-29T00:55:27.373Z,4.50
2018-12-29T00:58:37.666Z,4.35
2018-12-29T01:01:40.991Z,4.28
2018-12-29T01:04:51.337Z,4.29
2018-12-29T01:07:54.256Z,4.33
2018-12-29T01:11:04.528Z,4.43
2018-12-29T01:14:07.867Z,4.49
2018-12-29T01:17:10.713Z,4.48
2018-12-29T01:20:01.966Z,4.42
2018-12-29T01:23:05.144Z,4.34
2018-12-29T01:26:15.426Z,4.33
2018-12-29T01:29:18.560Z,4.38
2018-12-29T01:32:28.870Z,4.51
2018-12-29T01:35:31.808Z,4.38
2018-12-29T01:38:42.068Z,4.39
2018-12-29T01:41:45.107Z,4.38
2018-12-29T01:44:48.823Z,4.38
2018-12-29T01:47:59.114Z,4.39
2018-12-29T01:51:02.441Z,4.40
2018-12-29T01:54:12.701Z,4.38
2018-12-29T01:57:15.421Z,4.42
2018-12-29T02:00:25.763Z,4.44
2018-12-29T02:03:28.798Z,4.39
2018-12-29T02:06:39.101Z,4.33
2018-12-29T02:09:41.673Z,4.37
2018-12-29T02:12:52.055Z,4.39
2018-12-29T02:15:55.292Z,4.39
2018-12-29T02:18:58.197Z,4.43
2018-12-29T02:22:08.456Z,4.41
2018-12-29T02:25:11.382Z,4.40
2018-12-29T02:28:21.678Z,4.54
2018-12-29T02:31:24.209Z,4.44
2018-12-29T02:34:27.225Z,4.49
2018-12-29T02:37:30.190Z,4.38
2018-12-29T02:40:40.478Z,4.40
2018-12-29T02:43:43.226Z,4.34
2018-12-29T02:46:53.498Z,4.52
2018-12-29T02:49:56.259Z,4.43
2018-12-29T02:53:06.557Z,4.48
2018-12-29T02:56:09.090Z,4.39
2018-12-29T02:59:19.349Z,4.32
2018-12-29T03:02:22.543Z,4.28
2018-12-29T03:05:32.813Z,4.34
2018-12-29T03:08:24.075Z,4.42
2018-12-29T03:11:34.336Z,4.51
2018-12-29T03:14:37.505Z,4.50
2018-12-29T03:17:47.765Z,4.48
2018-12-29T03:20:50.659Z,4.51
2018-12-29T03:24:00.939Z,4.52
2018-12-29T03:27:03.498Z,4.54
2018-12-29T03:30:13.769Z,4.56
2018-12-29T03:33:16.616Z,4.54
2018-12-29T03:36:26.882Z,4.63
2018-12-29T03:39:29.787Z,4.57
2018-12-29T03:42:40.037Z,4.61
2018-12-29T03:45:49.116Z,4.51
2018-12-29T03:48:54.810Z,4.47
2018-12-29T03:51:57.792Z,4.50
2018-12-29T03:55:08.099Z,4.43
2018-12-29T03:57:59.305Z,4.38
2018-12-29T04:01:09.581Z,4.40
2018-12-29T04:04:19.874Z,4.33
2018-12-29T04:07:22.894Z,4.27
2018-12-29T04:10:33.188Z,4.30
2018-12-29T04:13:36.048Z,4.33
2018-12-29T04:16:46.354Z,4.40
2018-12-29T04:19:49.573Z,4.30
2018-12-29T04:22:53.013Z,4.38
2018-12-29T04:25:55.506Z,4.27
2018-12-29T04:29:05.787Z,4.28
2018-12-29T04:32:08.729Z,4.38
2018-12-29T04:35:19.005Z,4.25
2018-12-29T04:38:22.446Z,4.31
2018-12-29T04:41:32.776Z,4.27
2018-12-29T04:44:36.190Z,4.36
2018-12-29T04:47:39.506Z,4.38
2018-12-29T04:50:49.748Z,4.38
2018-12-29T04:53:52.459Z,4.40
2018-12-29T04:57:02.769Z,4.37
2018-12-29T05:00:05.974Z,4.35
2018-12-29T05:03:16.248Z,4.33
2018-12-29T05:06:19.517Z,4.46
2018-12-29T05:09:29.765Z,4.42
2018-12-29T05:12:32.253Z,4.43
2018-12-29T05:15:42.497Z,4.42
2018-12-29T05:18:45.014Z,4.40
2018-12-29T05:21:47.493Z,4.40
2018-12-29T05:24:50.259Z,4.37
2018-12-29T05:28:00.556Z,4.54
2018-12-29T05:31:03.917Z,4.53
2018-12-29T05:34:14.195Z,4.51
2018-12-29T05:37:17.461Z,4.53
2018-12-29T05:40:27.734Z,4.56
2018-12-29T05:43:30.570Z,4.54
2018-12-29T05:46:40.861Z,4.59
2018-12-29T05:49:44.075Z,4.66
2018-12-29T05:52:54.371Z,4.62
2018-12-29T05:55:56.904Z,4.65
2018-12-29T05:59:07.229Z,4.68
2018-12-29T06:02:10.046Z,4.65
2018-12-29T06:05:13.197Z,4.72
2018-12-29T06:08:23.466Z,4.68
2018-12-29T06:11:26.380Z,4.74
2018-12-29T06:14:36.635Z,4.72
2018-12-29T06:17:39.956Z,4.70
2018-12-29T06:20:50.288Z,4.83
2018-12-29T06:23:53.155Z,4.87
2018-12-29T06:26:56.490Z,4.82
2018-12-29T06:30:06.889Z,4.76
2018-12-29T06:33:09.529Z,4.78
2018-12-29T06:36:19.796Z,4.76
2018-12-29T06:39:22.966Z,4.84
2018-12-29T06:42:33.246Z,4.82
2018-12-29T06:45:36.677Z,4.85
2018-12-29T06:48:47.016Z,4.84
2018-12-29T06:51:50.022Z,4.87
2018-12-29T06:55:00.339Z,4.90
2018-12-29T06:58:03.489Z,4.95
2018-12-29T07:01:06.496Z,4.90
2018-12-29T07:04:16.801Z,4.94
2018-12-29T07:07:20.338Z,4.84
2018-12-29T07:10:23.407Z,4.81
2018-12-29T07:13:33.690Z,4.80
2018-12-29T07:16:42.155Z,4.92
2018-12-29T07:19:48.914Z,4.88
2018-12-29T07:22:52.035Z,4.89
2018-12-29T07:25:55.240Z,4.85
2018-12-29T07:29:05.556Z,4.97
2018-12-29T07:32:08.339Z,4.96
2018-12-29T07:35:18.629Z,4.86
2018-12-29T07:38:22.065Z,4.89
2018-12-29T07:41:32.379Z,4.95
2018-12-29T07:44:35.616Z,4.96
2018-12-29T07:47:38.425Z,5.00
2018-12-29T07:50:48.697Z,5.02
2018-12-29T07:53:51.530Z,4.98
2018-12-29T07:57:01.798Z,4.95
2018-12-29T08:00:05.276Z,4.96
2018-12-29T08:03:15.552Z,4.99
2018-12-29T08:06:18.630Z,5.04
2018-12-29T08:09:28.908Z,5.08
2018-12-29T08:12:31.528Z,5.07
2018-12-29T08:15:41.827Z,5.14
2018-12-29T08:18:44.349Z,5.12
2018-12-29T08:21:54.640Z,5.13
2018-12-29T08:24:57.909Z,5.18
2018-12-29T08:28:08.196Z,5.14
2018-12-29T08:31:11.533Z,5.19
2018-12-29T08:34:14.238Z,5.16
2018-12-29T08:37:24.480Z,5.20
2018-12-29T08:40:27.770Z,5.39
2018-12-29T08:43:38.133Z,5.31
2018-12-29T08:46:40.868Z,5.34
2018-12-29T08:49:51.153Z,5.30
2018-12-29T08:52:54.031Z,5.38
2018-12-29T08:56:04.290Z,5.32
2018-12-29T08:59:06.730Z,5.43
2018-12-29T09:02:17.001Z,5.45
2018-12-29T09:05:19.505Z,5.43
2018-12-29T09:08:29.774Z,5.37
2018-12-29T09:11:32.666Z,5.39
2018-12-29T09:14:42.951Z,5.45
2018-12-29T09:17:45.852Z,5.46
2018-12-29T09:20:37.014Z,5.49
2018-12-29T09:23:40.372Z,5.58
2018-12-29T09:26:43.267Z,5.56
2018-12-29T09:29:46.314Z,5.59
2018-12-29T09:32:56.582Z,5.59
2018-12-29T09:35:59.157Z,5.50
2018-12-29T09:39:09.679Z,5.49
2018-12-29T09:42:12.752Z,5.52
2018-12-29T09:45:16.113Z,5.51
2018-12-29T09:48:26.387Z,5.60
2018-12-29T09:51:29.387Z,5.61
2018-12-29T09:54:39.665Z,5.61
2018-12-29T09:57:42.607Z,5.74
2018-12-29T10:00:52.854Z,5.72
2018-12-29T10:03:55.451Z,5.72
2018-12-29T10:07:05.735Z,5.82
2018-12-29T10:10:08.594Z,5.90
2018-12-29T10:13:18.286Z,5.85
2018-12-29T10:16:20.693Z,5.85
2018-12-29T10:19:31.009Z,5.84
2018-12-29T10:22:34.237Z,5.98
2018-12-29T10:25:37.075Z,6.08
2018-12-29T10:28:39.934Z,6.04
2018-12-29T10:31:42.718Z,6.22
2018-12-29T10:34:53.111Z,6.30
2018-12-29T10:37:56.453Z,6.28
2018-12-29T10:41:06.723Z,6.37
2018-12-29T10:44:10.187Z,6.26
2018-12-29T10:47:20.467Z,6.28
2018-12-29T10:50:23.780Z,6.29
2018-12-29T10:53:34.065Z,6.27
2018-12-29T10:56:36.821Z,6.32
2018-12-29T10:59:47.055Z,6.39
2018-12-29T11:02:50.259Z,6.33
2018-12-29T11:06:00.558Z,6.30
2018-12-29T11:09:04.889Z,6.34
2018-12-29T11:12:15.153Z,6.29
2018-12-29T11:15:17.823Z,6.33
2018-12-29T11:18:28.118Z,6.24
2018-12-29T11:21:31.527Z,6.29
2018-12-29T11:24:41.806Z,6.27
2018-12-29T11:27:45.123Z,6.28
2018-12-29T11:30:55.391Z,6.26
2018-12-29T11:33:58.965Z,6.34
2018-12-29T11:37:01.890Z,6.41
2018-12-29T11:40:04.856Z,6.38
2018-12-29T11:43:16.613Z,6.47
2018-12-29T11:46:20.109Z,6.38
2018-12-29T11:49:30.375Z,6.38
2018-12-29T11:52:33.114Z,6.38
2018-12-29T11:55:43.352Z,6.32
2018-12-29T11:58:46.738Z,6.35
2018-12-29T12:01:56.980Z,6.34
2018-12-29T12:05:00.176Z,6.38
2018-12-29T12:08:10.426Z,6.41
2018-12-29T12:11:13.619Z,6.48
2018-12-29T12:14:24.267Z,6.40
2018-12-29T12:17:26.918Z,6.41
2018-12-29T12:20:30.033Z,6.41
2018-12-29T12:23:40.341Z,6.41
2018-12-29T12:26:44.576Z,6.42
2018-12-29T12:29:47.315Z,6.54
2018-12-29T12:32:57.596Z,6.59
2018-12-29T12:36:00.082Z,6.71
2018-12-29T12:39:10.405Z,6.68
2018-12-29T12:42:13.825Z,6.58
2018-12-29T12:45:16.653Z,6.76
2018-12-29T12:48:27.700Z,6.72
2018-12-29T12:51:32.183Z,6.79
2018-12-29T12:54:34.889Z,6.93
2018-12-29T12:57:45.418Z,6.93
2018-12-29T13:00:50.274Z,6.86
2018-12-29T13:04:00.834Z,6.91
2018-12-29T13:07:03.595Z,6.94
2018-12-29T13:10:07.468Z,6.86
2018-12-29T13:13:18.031Z,6.87
2018-12-29T13:16:20.587Z,6.83
2018-12-29T13:19:30.880Z,6.90
2018-12-29T13:22:34.243Z,6.89
2018-12-29T13:25:44.522Z,6.89
2018-12-29T13:28:47.758Z,6.91
2018-12-29T13:31:58.063Z,6.93
2018-12-29T13:35:01.210Z,6.88
2018-12-29T13:38:11.473Z,7.03
2018-12-29T13:41:14.286Z,6.95
2018-12-29T13:44:24.605Z,6.96
2018-12-29T13:47:27.187Z,7.01
2018-12-29T13:50:30.084Z,7.02
2018-12-29T13:53:40.327Z,7.07
2018-12-29T13:56:43.216Z,7.01
2018-12-29T13:59:53.429Z,6.97
2018-12-29T14:02:56.767Z,7.00
2018-12-29T14:06:07.247Z,6.98
2018-12-29T14:09:09.829Z,6.98
2018-12-29T14:12:20.124Z,6.93
2018-12-29T14:15:22.999Z,6.93
2018-12-29T14:18:33.282Z,6.85
2018-12-29T14:21:36.663Z,6.89
2018-12-29T14:24:39.670Z,6.71
2018-12-29T14:27:42.331Z,6.72
2018-12-29T14:30:53.019Z,6.65
2018-12-29T14:33:56.324Z,6.65
2018-12-29T14:36:59.189Z,6.67
2018-12-29T14:40:09.460Z,6.68
2018-12-29T14:43:12.646Z,6.63
2018-12-29T14:46:22.941Z,6.75
2018-12-29T14:49:25.667Z,6.81
2018-12-29T14:52:35.971Z,6.78
2018-12-29T14:55:39.186Z,6.73
2018-12-29T14:58:49.476Z,6.67
2018-12-29T15:01:52.788Z,6.67
2018-12-29T15:05:03.152Z,6.62
2018-12-29T15:08:05.826Z,6.63
2018-12-29T15:11:16.516Z,6.58
2018-12-29T15:14:20.425Z,6.57
2018-12-29T15:17:31.048Z,6.57
2018-12-29T15:20:34.236Z,6.58
2018-12-29T15:23:37.444Z,6.69
2018-12-29T15:26:40.166Z,6.60
2018-12-29T15:29:43.627Z,6.67
2018-12-29T15:32:54.258Z,6.74
2018-12-29T15:35:57.622Z,6.70
2018-12-29T15:39:08.467Z,6.69
2018-12-29T15:42:11.720Z,6.63
2018-12-29T15:45:14.645Z,6.65
2018-12-29T15:48:17.616Z,6.67
2018-12-29T15:51:27.876Z,6.58
2018-12-29T15:54:30.603Z,6.55
2018-12-29T16:00:52.639Z,6.54
2018-12-29T16:04:02.924Z,6.48
2018-12-29T16:07:06.270Z,6.48
2018-12-29T16:10:09.998Z,6.48
2018-12-29T16:13:20.268Z,6.48
2018-12-29T16:16:23.570Z,6.48
2018-12-29T16:19:33.840Z,6.55
2018-12-29T16:22:36.377Z,6.42
2018-12-29T16:25:46.691Z,6.37
2018-12-29T16:28:49.368Z,6.36
2018-12-29T16:31:59.642Z,6.33
2018-12-29T16:35:02.196Z,6.29
2018-12-29T16:38:12.478Z,6.31
2018-12-29T16:41:15.433Z,6.32
2018-12-29T16:44:25.734Z,6.41
2018-12-29T16:47:30.102Z,6.33
2018-12-29T16:50:40.424Z,6.33
2018-12-29T16:53:43.124Z,6.39
2018-12-29T16:56:53.414Z,6.51
2018-12-29T16:59:57.838Z,6.45
2018-12-29T17:03:08.118Z,6.45
2018-12-29T17:06:10.795Z,6.46
2018-12-29T17:09:13.686Z,6.55
2018-12-29T17:12:24.002Z,6.59
2018-12-29T17:15:26.863Z,6.58
2018-12-29T17:18:30.061Z,6.58
2018-12-29T17:21:40.846Z,6.60
2018-12-29T17:24:43.777Z,6.66
2018-12-29T17:27:54.086Z,6.74
2018-12-29T17:30:57.123Z,6.72
2018-12-29T17:34:07.411Z,6.76
2018-12-29T17:37:10.248Z,6.77
2018-12-29T17:40:20.799Z,6.72
2018-12-29T17:43:23.285Z,6.79
2018-12-29T17:46:33.596Z,6.80
2018-12-29T17:49:38.788Z,6.79
2018-12-29T17:52:49.080Z,6.88
2018-12-29T17:55:51.668Z,6.95
2018-12-29T17:58:54.463Z,6.83
2018-12-29T18:02:04.768Z,6.93
2018-12-29T18:05:09.417Z,6.96
2018-12-29T18:08:19.690Z,6.96
2018-12-29T18:11:23.027Z,6.96
2018-12-29T18:14:33.299Z,7.05
2018-12-29T18:17:35.966Z,6.98
2018-12-29T18:20:46.253Z,6.98
2018-12-29T18:23:48.863Z,7.00
2018-12-29T18:26:59.454Z,7.02
2018-12-29T18:30:02.302Z,7.07
2018-12-29T18:33:12.586Z,7.12
2018-12-29T18:36:16.032Z,7.14
2018-12-29T18:39:26.666Z,7.16
2018-12-29T18:42:17.924Z,7.23
2018-12-29T18:45:28.200Z,7.12
2018-12-29T18:48:31.268Z,7.19
2018-12-29T18:51:41.549Z,7.21
2018-12-29T18:54:44.779Z,7.23
2018-12-29T18:57:47.642Z,7.29
2018-12-29T19:00:57.921Z,7.34
2018-12-29T19:04:00.775Z,7.36
2018-12-29T19:07:11.097Z,7.42
2018-12-29T19:10:14.533Z,7.49
2018-12-29T19:13:17.377Z,7.53
2018-12-29T19:16:28.010Z,7.55
2018-12-29T19:19:31.009Z,7.63
2018-12-29T19:22:41.274Z,7.67
2018-12-29T19:25:44.618Z,7.68
2018-12-29T19:28:48.166Z,7.69
2018-12-29T19:31:52.539Z,7.71
2018-12-29T19:35:03.168Z,7.78
2018-12-29T19:38:07.801Z,7.80
2018-12-29T19:41:18.361Z,7.89
2018-12-29T19:44:23.456Z,7.96
2018-12-29T19:47:34.015Z,7.96
2018-12-29T19:50:38.271Z,7.99
2018-12-29T19:53:41.120Z,8.02
2018-12-29T19:56:51.412Z,8.08
2018-12-29T19:59:55.607Z,8.09
2018-12-29T20:02:58.573Z,8.14
2018-12-29T20:06:11.285Z,8.21
2018-12-29T20:09:13.464Z,8.22
2018-12-29T20:12:23.814Z,8.23
2018-12-29T20:15:26.431Z,8.30
2018-12-29T20:18:36.746Z,8.29
2018-12-29T20:21:39.996Z,8.36
2018-12-29T20:24:42.778Z,8.43
2018-12-29T20:27:45.531Z,8.40
2018-12-29T20:30:48.692Z,8.40
2018-12-29T20:33:58.985Z,8.52
2018-12-29T20:37:01.755Z,8.55
2018-12-29T20:40:12.051Z,8.51
2018-12-29T20:43:15.165Z,8.52
2018-12-29T20:46:25.450Z,8.55
2018-12-29T20:49:29.564Z,8.58
2018-12-29T20:52:39.931Z,8.58
2018-12-29T20:55:42.657Z,8.65
2018-12-29T20:58:53.007Z,8.66
2018-12-29T21:01:55.617Z,8.78
2018-12-29T21:04:58.647Z,8.75
2018-12-29T21:08:09.308Z,8.70
2018-12-29T21:11:12.662Z,8.81
2018-12-29T21:14:22.976Z,8.70
2018-12-29T21:17:25.815Z,8.76
2018-12-29T21:20:28.826Z,8.72
2018-12-29T21:23:39.134Z,8.73
2018-12-29T21:26:41.930Z,8.76
2018-12-29T21:29:52.648Z,8.85
2018-12-29T21:32:55.439Z,8.84
2018-12-29T21:35:58.334Z,8.83
2018-12-29T21:39:08.694Z,8.80
2018-12-29T21:42:11.868Z,8.88
2018-12-29T21:45:22.134Z,8.82
2018-12-29T21:48:24.894Z,8.72
2018-12-29T21:51:27.579Z,8.60
2018-12-29T21:54:30.431Z,8.53
2018-12-29T21:57:40.712Z,8.53
2018-12-29T22:00:43.741Z,8.49
2018-12-29T22:03:34.990Z,8.43
2018-12-29T22:06:37.668Z,8.52
2018-12-29T22:09:48.051Z,8.48
2018-12-29T22:12:51.187Z,8.43
2018-12-29T22:16:01.507Z,8.38
2018-12-29T22:19:03.969Z,8.39
2018-12-29T22:22:14.264Z,8.40
2018-12-29T22:25:18.477Z,8.46
2018-12-29T22:28:21.047Z,8.38
2018-12-29T22:31:31.341Z,8.42
2018-12-29T22:34:33.778Z,8.46
2018-12-29T22:37:25.014Z,8.37
2018-12-29T22:40:15.359Z,8.43
2018-12-29T22:43:05.108Z,8.42
2018-12-29T22:45:55.375Z,8.43
2018-12-29T22:48:44.891Z,8.48
2018-12-29T22:51:35.066Z,8.48
2018-12-29T22:54:25.515Z,8.45
2018-12-29T22:57:15.108Z,8.34
2018-12-29T23:00:07.861Z,8.31
2018-12-29T23:02:58.270Z,8.30
2018-12-29T23:05:48.561Z,8.29
2018-12-29T23:08:38.687Z,8.29
2018-12-29T23:11:29.193Z,8.36
2018-12-29T23:14:18.717Z,8.33
2018-12-29T23:17:09.074Z,8.33
2018-12-29T23:19:59.169Z,8.30
2018-12-29T23:22:49.576Z,8.35
2018-12-29T23:25:39.387Z,8.26
2018-12-29T23:28:29.543Z,8.32
2018-12-29T23:31:20.147Z,8.28
2018-12-29T23:34:10.384Z,8.32
2018-12-29T23:37:00.340Z,8.32
2018-12-29T23:39:50.859Z,8.36
2018-12-29T23:42:41.491Z,8.32
2018-12-29T23:45:31.901Z,8.29
2018-12-29T23:48:21.719Z,8.24
2018-12-29T23:51:12.204Z,8.29
2018-12-29T23:54:02.195Z,8.30
2018-12-29T23:56:53.068Z,8.31
2018-12-29T23:59:43.321Z,8.23
